createdAt,value
2023-03-10T00:01:15.260Z,23.20
2023-03-10T00:03:42.949Z,23.17
2023-03-10T00:06:12.432Z,22.00
2023-03-10T00:08:41.051Z,25.55
2023-03-10T00:11:08.767Z,22.27
2023-03-10T00:13:37.863Z,25.38
2023-03-10T00:16:06.431Z,25.77
2023-03-10T00:18:34.075Z,21.08
2023-03-10T00:21:01.765Z,24.30
2023-03-10T00:23:29.309Z,21.67
2023-03-10T00:25:58.081Z,23.20
2023-03-10T00:28:27.045Z,24.75
2023-03-10T00:31:00.994Z,25.60
2023-03-10T00:33:28.697Z,26.70
2023-03-10T00:36:04.296Z,24.95
2023-03-10T00:38:32.113Z,26.23
2023-03-10T00:41:00.867Z,25.15
2023-03-10T00:43:29.230Z,25.88
2023-03-10T00:45:58.703Z,22.38
2023-03-10T00:48:26.264Z,25.98
2023-03-10T00:50:54.227Z,24.38
2023-03-10T00:53:21.820Z,25.20
2023-03-10T00:56:00.239Z,25.08
2023-03-10T00:58:28.455Z,26.95
2023-03-10T01:00:56.285Z,25.90
2023-03-10T01:03:26.425Z,22.00
2023-03-10T01:05:54.760Z,24.88
2023-03-10T01:08:22.944Z,22.92
2023-03-10T01:10:51.142Z,22.73
2023-03-10T01:13:19.550Z,25.67
2023-03-10T01:15:47.937Z,24.85
2023-03-10T01:18:16.376Z,23.77
2023-03-10T01:20:45.661Z,21.50
2023-03-10T01:23:15.948Z,21.60
2023-03-10T01:25:43.974Z,20.98
2023-03-10T01:28:12.000Z,25.80
2023-03-10T01:30:40.390Z,23.73
2023-03-10T01:33:09.393Z,21.92
2023-03-10T01:35:37.504Z,22.95
2023-03-10T01:38:06.938Z,23.73
2023-03-10T01:40:35.272Z,22.08
2023-03-10T01:43:28.114Z,21.02
2023-03-10T01:46:35.092Z,23.20
2023-03-10T01:49:19.806Z,22.50
2023-03-10T01:51:51.449Z,21.77
2023-03-10T01:54:25.163Z,24.02
2023-03-10T01:56:55.009Z,24.50
2023-03-10T01:59:24.039Z,23.85
2023-03-10T02:01:52.644Z,25.00
2023-03-10T02:04:27.147Z,24.65
2023-03-10T02:06:55.607Z,25.70
2023-03-10T02:09:26.042Z,23.83
2023-03-10T02:11:54.860Z,27.65
2023-03-10T02:14:22.414Z,22.92
2023-03-10T02:16:50.863Z,26.27
2023-03-10T02:19:38.324Z,23.80
2023-03-10T02:22:09.098Z,25.55
2023-03-10T02:24:47.920Z,25.23
2023-03-10T02:27:19.629Z,25.88
2023-03-10T02:29:59.239Z,24.52
2023-03-10T02:32:33.835Z,25.20
2023-03-10T02:35:01.847Z,24.40
2023-03-10T02:37:31.442Z,25.58
2023-03-10T02:39:59.683Z,23.63
2023-03-10T02:42:33.354Z,24.58
2023-03-10T02:45:01.743Z,23.80
2023-03-10T02:47:29.299Z,26.30
2023-03-10T02:49:56.949Z,24.70
2023-03-10T02:52:30.601Z,25.88
2023-03-10T02:54:58.632Z,26.40
2023-03-10T02:57:29.465Z,27.50
2023-03-10T02:59:57.091Z,26.00
2023-03-10T03:02:24.641Z,27.02
2023-03-10T03:04:52.164Z,27.92
2023-03-10T03:07:19.795Z,27.50
2023-03-10T03:09:47.388Z,26.20
2023-03-10T03:12:15.104Z,24.05
2023-03-10T03:14:43.990Z,27.33
2023-03-10T03:17:11.550Z,24.58
2023-03-10T03:19:39.375Z,22.05
2023-03-10T03:22:07.178Z,27.15
2023-03-10T03:24:34.944Z,24.35
2023-03-10T03:27:03.471Z,24.27
2023-03-10T03:29:31.038Z,22.05
2023-03-10T03:32:00.257Z,24.42
2023-03-10T03:34:31.341Z,27.95
2023-03-10T03:37:02.354Z,25.80
2023-03-10T03:39:34.729Z,23.58
2023-03-10T03:42:05.737Z,25.30
2023-03-10T03:44:42.648Z,26.95
2023-03-10T03:47:12.677Z,29.80
2023-03-10T03:49:40.451Z,28.40
2023-03-10T03:52:08.746Z,29.75
2023-03-10T03:54:36.692Z,28.95
2023-03-10T03:57:04.747Z,29.88
2023-03-10T03:59:32.376Z,31.67
2023-03-10T04:01:59.968Z,34.17
2023-03-10T04:04:29.071Z,33.20
2023-03-10T04:06:57.110Z,31.23
2023-03-10T04:09:24.664Z,29.52
2023-03-10T04:11:52.508Z,29.48
2023-03-10T04:14:21.494Z,29.52
2023-03-10T04:16:49.193Z,27.75
2023-03-10T04:19:16.875Z,35.92
2023-03-10T04:21:49.421Z,26.63
2023-03-10T04:24:17.705Z,31.73
2023-03-10T04:26:46.125Z,31.77
2023-03-10T04:29:13.744Z,33.97
2023-03-10T04:31:48.320Z,34.47
2023-03-10T04:34:18.565Z,38.00
2023-03-10T04:36:46.447Z,32.97
2023-03-10T04:39:15.961Z,38.65
2023-03-10T04:41:43.730Z,30.38
2023-03-10T04:44:24.431Z,34.30
2023-03-10T04:46:58.108Z,30.92
2023-03-10T04:49:25.799Z,29.80
2023-03-10T04:51:53.429Z,34.38
2023-03-10T04:54:22.694Z,31.58
2023-03-10T04:56:50.452Z,37.03
2023-03-10T04:59:20.084Z,34.10
2023-03-10T05:01:49.227Z,37.10
2023-03-10T05:04:16.959Z,38.97
2023-03-10T05:06:44.735Z,36.30
2023-03-10T05:09:21.935Z,38.75
2023-03-10T05:11:50.080Z,36.05
2023-03-10T05:14:18.718Z,37.83
2023-03-10T05:16:48.522Z,40.65
2023-03-10T05:19:16.301Z,33.15
2023-03-10T05:21:43.998Z,39.80
2023-03-10T05:24:11.652Z,35.58
2023-03-10T05:26:41.653Z,35.95
2023-03-10T05:29:09.227Z,36.83
2023-03-10T05:31:51.048Z,38.20
2023-03-10T05:34:26.728Z,37.88
2023-03-10T05:36:57.000Z,56.17
2023-03-10T05:39:25.117Z,36.60
2023-03-10T05:41:57.179Z,37.53
2023-03-10T05:44:28.527Z,38.67
2023-03-10T05:46:56.191Z,43.47
2023-03-10T05:49:24.010Z,37.15
2023-03-10T05:51:52.832Z,41.92
2023-03-10T05:54:20.766Z,36.92
2023-03-10T05:56:48.570Z,41.08
2023-03-10T05:59:17.859Z,43.15
2023-03-10T06:01:45.524Z,40.10
2023-03-10T06:04:13.199Z,42.95
2023-03-10T06:06:40.744Z,40.88
2023-03-10T06:09:08.315Z,43.20
2023-03-10T06:11:36.243Z,51.25
2023-03-10T06:14:04.308Z,47.22
2023-03-10T06:16:33.227Z,48.22
2023-03-10T06:19:00.775Z,42.75
2023-03-10T06:21:29.390Z,43.33
2023-03-10T06:23:56.925Z,47.20
2023-03-10T06:26:24.479Z,51.00
2023-03-10T06:28:52.029Z,47.97
2023-03-10T06:31:22.078Z,44.70
2023-03-10T06:33:51.356Z,43.33
2023-03-10T06:36:19.032Z,44.85
2023-03-10T06:38:46.615Z,39.45
2023-03-10T06:41:14.320Z,39.92
2023-03-10T06:43:42.092Z,38.72
2023-03-10T06:46:11.213Z,41.00
2023-03-10T06:48:40.275Z,37.80
2023-03-10T06:51:11.726Z,38.60
2023-03-10T06:53:39.447Z,39.90
2023-03-10T06:56:09.404Z,41.78
2023-03-10T06:58:38.144Z,34.85
2023-03-10T07:01:07.440Z,38.47
2023-03-10T07:03:35.424Z,39.97
2023-03-10T07:06:03.219Z,37.00
2023-03-10T07:08:32.135Z,38.70
2023-03-10T07:10:59.703Z,39.22
2023-03-10T07:13:27.255Z,41.95
2023-03-10T07:15:54.900Z,36.70
2023-03-10T07:18:22.444Z,37.88
2023-03-10T07:20:53.014Z,37.60
2023-03-10T07:23:21.052Z,35.30
2023-03-10T07:25:52.676Z,36.85
2023-03-10T07:28:20.342Z,37.88
2023-03-10T07:30:49.164Z,36.03
2023-03-10T07:33:17.145Z,41.08
2023-03-10T07:35:45.800Z,36.85
2023-03-10T07:38:13.408Z,39.50
2023-03-10T07:40:41.138Z,36.65
2023-03-10T07:43:10.505Z,39.17
2023-03-10T07:45:39.042Z,41.83
2023-03-10T07:48:07.136Z,38.75
2023-03-10T07:50:34.772Z,40.28
2023-03-10T07:53:02.316Z,39.50
2023-03-10T07:55:29.902Z,35.58
2023-03-10T07:58:00.240Z,37.50
2023-03-10T08:00:29.400Z,40.45
2023-03-10T08:02:56.991Z,36.63
2023-03-10T08:05:24.604Z,39.90
2023-03-10T08:07:52.354Z,40.72
2023-03-10T08:10:20.059Z,40.08
2023-03-10T08:12:47.691Z,39.13
2023-03-10T08:15:15.238Z,37.25
2023-03-10T08:17:44.131Z,42.00
2023-03-10T08:20:12.598Z,38.97
2023-03-10T08:22:40.337Z,35.42
2023-03-10T08:25:08.602Z,44.67
2023-03-10T08:27:36.634Z,43.00
2023-03-10T08:30:04.544Z,41.58
2023-03-10T08:32:34.179Z,40.10
2023-03-10T08:35:05.591Z,40.83
2023-03-10T08:37:33.150Z,44.55
2023-03-10T08:40:01.035Z,37.20
2023-03-10T08:42:28.631Z,38.30
2023-03-10T08:44:56.760Z,39.45
2023-03-10T08:47:26.408Z,39.13
2023-03-10T08:49:55.667Z,42.38
2023-03-10T08:52:24.766Z,39.58
2023-03-10T08:54:52.348Z,41.13
2023-03-10T08:57:19.984Z,43.70
2023-03-10T08:59:47.540Z,45.67
2023-03-10T09:02:15.487Z,42.38
2023-03-10T09:04:43.093Z,38.40
2023-03-10T09:07:11.020Z,41.88
2023-03-10T09:09:40.110Z,43.15
2023-03-10T09:12:08.910Z,46.08
2023-03-10T09:14:36.473Z,41.65
2023-03-10T09:17:04.784Z,44.22
2023-03-10T09:19:32.370Z,39.38
2023-03-10T09:22:00.121Z,47.08
2023-03-10T09:24:27.857Z,43.58
2023-03-10T09:26:56.876Z,39.35
2023-03-10T09:29:41.799Z,40.25
2023-03-10T09:32:10.620Z,39.83
2023-03-10T09:34:38.356Z,39.13
2023-03-10T09:37:08.410Z,41.15
2023-03-10T09:39:36.185Z,45.25
2023-03-10T09:42:37.516Z,39.53
2023-03-10T09:45:19.926Z,42.72
2023-03-10T09:47:56.320Z,44.05
2023-03-10T09:50:32.235Z,41.97
2023-03-10T09:53:13.312Z,45.17
2023-03-10T09:55:47.717Z,40.25
2023-03-10T09:58:27.787Z,46.63
2023-03-10T10:00:55.671Z,46.25
2023-03-10T10:03:25.162Z,46.33
2023-03-10T10:05:55.973Z,44.80
2023-03-10T10:08:29.016Z,46.63
2023-03-10T10:10:58.883Z,42.30
2023-03-10T10:13:30.532Z,44.25
2023-03-10T10:16:21.370Z,39.55
2023-03-10T10:19:00.279Z,43.72
2023-03-10T10:21:42.351Z,43.90
2023-03-10T10:24:10.692Z,46.78
2023-03-10T10:26:38.259Z,47.13
2023-03-10T10:29:16.580Z,44.03
2023-03-10T10:32:01.998Z,45.80
2023-03-10T10:34:31.985Z,50.22
2023-03-10T10:37:38.790Z,52.67
2023-03-10T10:40:24.038Z,53.92
2023-03-10T10:42:54.627Z,53.33
2023-03-10T10:45:29.973Z,49.13
2023-03-10T10:47:57.898Z,47.47
2023-03-10T10:50:27.904Z,56.45
2023-03-10T10:53:17.707Z,55.05
2023-03-10T10:55:46.746Z,52.92
2023-03-10T10:58:28.231Z,51.60
2023-03-10T11:00:59.090Z,58.97
2023-03-10T11:03:31.274Z,59.22
2023-03-10T11:06:00.912Z,62.25
2023-03-10T11:08:34.924Z,54.63
2023-03-10T11:11:12.146Z,57.22
2023-03-10T11:13:52.910Z,59.85
2023-03-10T11:16:26.809Z,61.83
2023-03-10T11:18:59.094Z,67.75
2023-03-10T11:21:29.147Z,62.85
2023-03-10T11:24:06.030Z,61.05
2023-03-10T11:26:45.050Z,60.45
2023-03-10T11:29:24.865Z,60.22
2023-03-10T11:32:05.725Z,64.68
2023-03-10T11:34:37.290Z,52.83
2023-03-10T11:37:14.327Z,60.13
2023-03-10T11:39:49.849Z,57.58
2023-03-10T11:42:26.199Z,61.92
2023-03-10T11:45:04.638Z,53.50
2023-03-10T11:47:48.249Z,54.28
2023-03-10T11:50:27.889Z,58.90
2023-03-10T11:53:01.385Z,52.97
2023-03-10T11:55:30.968Z,52.05
2023-03-10T11:58:01.959Z,51.53
2023-03-10T12:00:34.017Z,56.67
2023-03-10T12:03:13.629Z,58.33
2023-03-10T12:05:47.472Z,53.97
2023-03-10T12:08:17.726Z,48.63
2023-03-10T12:10:45.638Z,58.53
2023-03-10T12:13:23.287Z,55.00
2023-03-10T12:15:53.560Z,55.83
2023-03-10T12:18:24.998Z,55.85
2023-03-10T12:21:22.531Z,57.38
2023-03-10T12:23:51.973Z,52.80
2023-03-10T12:26:55.361Z,51.97
2023-03-10T12:29:43.198Z,50.40
2023-03-10T12:32:40.219Z,47.60
2023-03-10T12:35:50.661Z,50.45
2023-03-10T12:38:31.150Z,51.33
2023-03-10T12:41:00.530Z,50.97
2023-03-10T12:43:56.078Z,46.38
2023-03-10T12:46:30.264Z,49.50
2023-03-10T12:49:11.966Z,47.65
2023-03-10T12:51:43.800Z,53.70
2023-03-10T12:54:32.035Z,43.17
2023-03-10T12:57:05.522Z,42.40
2023-03-10T12:59:40.632Z,56.95
2023-03-10T13:02:23.499Z,47.53
2023-03-10T13:04:52.873Z,42.75
2023-03-10T13:07:21.801Z,38.58
2023-03-10T13:09:50.503Z,48.08
2023-03-10T13:12:22.179Z,37.88
2023-03-10T13:14:55.568Z,42.58
2023-03-10T13:17:25.985Z,44.60
2023-03-10T13:20:05.333Z,43.42
2023-03-10T13:22:34.608Z,47.65
2023-03-10T13:25:04.244Z,42.15
2023-03-10T13:27:34.114Z,39.55
2023-03-10T13:30:04.232Z,39.90
2023-03-10T13:32:33.426Z,44.17
2023-03-10T13:35:15.491Z,41.13
2023-03-10T13:37:44.430Z,39.47
2023-03-10T13:40:17.615Z,36.28
2023-03-10T13:42:47.994Z,40.45
2023-03-10T13:45:23.008Z,35.25
2023-03-10T13:47:52.004Z,34.20
2023-03-10T13:50:19.801Z,35.83
2023-03-10T13:53:00.020Z,33.70
2023-03-10T13:55:29.044Z,35.45
2023-03-10T13:57:56.960Z,37.55
2023-03-10T14:00:26.897Z,33.38
2023-03-10T14:02:54.835Z,34.35
2023-03-10T14:05:39.715Z,32.15
2023-03-10T14:08:19.337Z,34.92
2023-03-10T14:10:46.849Z,34.20
2023-03-10T14:13:40.009Z,30.42
2023-03-10T14:16:08.209Z,33.58
2023-03-10T14:18:37.227Z,32.33
2023-03-10T14:21:25.775Z,30.75
2023-03-10T14:23:57.154Z,31.98
2023-03-10T14:26:25.003Z,29.70
2023-03-10T14:28:52.509Z,31.25
2023-03-10T14:31:23.006Z,29.13
2023-03-10T14:33:50.872Z,29.55
2023-03-10T14:36:18.519Z,27.58
2023-03-10T14:38:46.184Z,28.55
2023-03-10T14:41:16.606Z,30.52
2023-03-10T14:43:44.375Z,25.90
2023-03-10T14:46:13.457Z,28.00
2023-03-10T14:48:42.114Z,27.90
2023-03-10T14:51:19.979Z,28.05
2023-03-10T14:53:53.320Z,28.90
2023-03-10T14:56:23.400Z,27.23
2023-03-10T14:58:53.556Z,30.25
2023-03-10T15:01:22.298Z,28.02
2023-03-10T15:03:50.039Z,25.92
2023-03-10T15:06:20.808Z,27.30
2023-03-10T15:08:48.551Z,31.25
2023-03-10T15:11:21.510Z,29.23
2023-03-10T15:13:59.556Z,27.45
2023-03-10T15:16:27.150Z,25.05
2023-03-10T15:18:54.663Z,26.15
2023-03-10T15:21:22.327Z,25.17
2023-03-10T15:23:49.890Z,26.58
2023-03-10T15:26:17.449Z,25.25
2023-03-10T15:28:45.005Z,30.48
2023-03-10T15:31:13.964Z,24.67
2023-03-10T15:33:41.604Z,25.73
2023-03-10T15:36:10.377Z,23.67
2023-03-10T15:38:37.934Z,27.75
2023-03-10T15:41:05.692Z,26.67
2023-03-10T15:43:33.235Z,24.25
2023-03-10T15:46:06.710Z,24.80
2023-03-10T15:48:35.755Z,30.70
2023-03-10T15:51:09.864Z,27.67
2023-03-10T15:53:37.982Z,25.48
2023-03-10T15:56:06.975Z,30.10
2023-03-10T15:58:34.889Z,25.20
2023-03-10T16:01:07.705Z,24.83
2023-03-10T16:03:37.172Z,23.92
2023-03-10T16:06:05.521Z,22.88
2023-03-10T16:08:37.238Z,25.33
2023-03-10T16:11:06.054Z,22.77
2023-03-10T16:13:33.705Z,22.58
2023-03-10T16:16:05.762Z,24.80
2023-03-10T16:18:33.392Z,23.02
2023-03-10T16:21:04.033Z,23.33
2023-03-10T16:23:33.213Z,21.13
2023-03-10T16:26:05.997Z,25.50
2023-03-10T16:28:33.703Z,21.77
2023-03-10T16:31:02.409Z,25.45
2023-03-10T16:33:30.275Z,20.23
2023-03-10T16:35:59.462Z,22.85
2023-03-10T16:38:28.858Z,23.38
2023-03-10T16:40:57.967Z,24.23
2023-03-10T16:43:28.714Z,25.60
2023-03-10T16:46:07.426Z,28.75
2023-03-10T16:48:36.912Z,22.15
2023-03-10T16:51:19.000Z,21.35
2023-03-10T16:53:48.236Z,26.55
2023-03-10T16:56:16.092Z,28.73
2023-03-10T16:58:43.950Z,28.23
2023-03-10T17:01:11.601Z,34.72
2023-03-10T17:03:40.410Z,27.05
2023-03-10T17:06:09.727Z,23.75
2023-03-10T17:08:38.006Z,23.50
2023-03-10T17:11:08.423Z,25.83
2023-03-10T17:13:36.661Z,26.83
2023-03-10T17:16:12.359Z,24.83
2023-03-10T17:18:39.972Z,27.20
2023-03-10T17:21:15.409Z,28.08
2023-03-10T17:23:43.237Z,23.08
2023-03-10T17:26:13.691Z,28.60
2023-03-10T17:28:42.598Z,26.23
2023-03-10T17:31:12.412Z,26.40
2023-03-10T17:33:41.334Z,29.63
2023-03-10T17:36:12.519Z,26.05
2023-03-10T17:38:40.789Z,24.52
2023-03-10T17:41:10.933Z,26.85
2023-03-10T17:43:40.110Z,24.95
2023-03-10T17:46:09.407Z,26.35
2023-03-10T17:48:37.111Z,32.53
2023-03-10T17:51:06.858Z,31.75
2023-03-10T17:53:34.614Z,32.58
2023-03-10T17:56:04.909Z,36.33
2023-03-10T17:58:32.503Z,29.05
2023-03-10T18:01:07.860Z,37.42
2023-03-10T18:03:36.014Z,35.63
2023-03-10T18:06:04.629Z,43.53
2023-03-10T18:08:32.215Z,39.53
2023-03-10T18:11:01.263Z,29.77
2023-03-10T18:13:28.949Z,26.38
2023-03-10T18:15:56.804Z,34.42
2023-03-10T18:18:26.262Z,37.83
2023-03-10T18:20:53.887Z,41.92
2023-03-10T18:23:22.991Z,44.75
2023-03-10T18:25:51.595Z,44.70
2023-03-10T18:28:20.810Z,31.13
2023-03-10T18:30:53.025Z,35.40
2023-03-10T18:33:20.752Z,26.50
2023-03-10T18:35:49.668Z,42.90
2023-03-10T18:38:17.914Z,47.33
2023-03-10T18:40:45.582Z,31.48
2023-03-10T18:43:13.126Z,36.85
2023-03-10T18:45:43.817Z,35.75
2023-03-10T18:48:11.483Z,36.45
2023-03-10T18:50:39.162Z,29.73
2023-03-10T18:53:08.126Z,29.45
2023-03-10T18:55:35.702Z,31.00
2023-03-10T18:58:03.331Z,33.47
2023-03-10T19:00:30.864Z,34.00
2023-03-10T19:02:58.522Z,30.58
2023-03-10T19:05:26.433Z,29.38
2023-03-10T19:07:54.020Z,30.23
2023-03-10T19:10:23.197Z,43.78
2023-03-10T19:12:50.844Z,27.10
2023-03-10T19:15:18.670Z,30.25
2023-03-10T19:17:46.216Z,31.08
2023-03-10T19:20:16.121Z,31.75
2023-03-10T19:22:45.258Z,31.65
2023-03-10T19:25:12.935Z,28.38
2023-03-10T19:27:41.811Z,32.53
2023-03-10T19:30:12.432Z,30.65
2023-03-10T19:32:40.462Z,39.83
2023-03-10T19:35:09.466Z,31.88
2023-03-10T19:37:37.700Z,35.33
2023-03-10T19:40:08.531Z,30.38
2023-03-10T19:42:38.386Z,33.63
2023-03-10T19:45:08.603Z,33.05
2023-03-10T19:47:36.180Z,38.50
2023-03-10T19:50:03.902Z,36.13
2023-03-10T19:52:31.409Z,32.83
2023-03-10T19:54:59.020Z,32.30
2023-03-10T19:57:26.770Z,35.00
2023-03-10T19:59:54.298Z,36.63
2023-03-10T20:02:24.594Z,30.67
2023-03-10T20:04:52.115Z,32.35
2023-03-10T20:07:19.631Z,30.10
2023-03-10T20:09:49.369Z,30.23
2023-03-10T20:12:16.929Z,29.80
2023-03-10T20:14:44.538Z,29.65
2023-03-10T20:17:12.101Z,27.40
2023-03-10T20:19:43.372Z,25.80
2023-03-10T20:22:10.888Z,27.85
2023-03-10T20:24:38.502Z,28.77
2023-03-10T20:27:06.168Z,29.75
2023-03-10T20:29:33.763Z,27.30
2023-03-10T20:32:01.376Z,36.22
2023-03-10T20:34:29.211Z,27.10
2023-03-10T20:36:58.511Z,25.50
2023-03-10T20:39:26.251Z,27.52
2023-03-10T20:41:53.794Z,27.60
2023-03-10T20:44:21.625Z,24.45
2023-03-10T20:46:49.193Z,28.25
2023-03-10T20:49:16.916Z,28.63
2023-03-10T20:51:44.374Z,26.38
2023-03-10T20:54:13.291Z,24.55
2023-03-10T20:56:40.923Z,24.35
2023-03-10T20:59:08.533Z,25.75
2023-03-10T21:01:39.658Z,22.00
2023-03-10T21:04:07.401Z,21.20
2023-03-10T21:06:35.842Z,22.38
2023-03-10T21:09:05.790Z,22.17
2023-03-10T21:11:35.729Z,20.58
2023-03-10T21:14:03.471Z,23.88
2023-03-10T21:16:31.130Z,20.30
2023-03-10T21:18:58.767Z,21.13
2023-03-10T21:21:26.324Z,22.60
2023-03-10T21:23:53.848Z,23.60
2023-03-10T21:26:22.205Z,25.35
2023-03-10T21:28:51.059Z,18.95
2023-03-10T21:31:18.722Z,26.42
2023-03-10T21:33:46.233Z,22.83
2023-03-10T21:36:15.357Z,21.85
2023-03-10T21:38:43.042Z,24.88
2023-03-10T21:41:11.648Z,29.83
2023-03-10T21:43:39.177Z,24.73
2023-03-10T21:46:08.036Z,31.63
2023-03-10T21:48:35.690Z,26.15
2023-03-10T21:51:03.255Z,25.48
2023-03-10T21:53:31.372Z,23.15
2023-03-10T21:56:00.516Z,22.30
2023-03-10T21:58:28.117Z,23.92
2023-03-10T22:01:02.191Z,29.05
2023-03-10T22:03:31.127Z,26.48
2023-03-10T22:05:58.867Z,22.95
2023-03-10T22:08:26.351Z,22.15
2023-03-10T22:10:53.966Z,22.80
2023-03-10T22:13:21.531Z,23.42
2023-03-10T22:15:49.213Z,23.85
2023-03-10T22:18:16.824Z,26.52
2023-03-10T22:20:45.737Z,22.30
2023-03-10T22:23:13.619Z,22.83
2023-03-10T22:25:41.171Z,26.63
2023-03-10T22:28:09.036Z,23.27
2023-03-10T22:30:37.172Z,24.88
2023-03-10T22:33:06.794Z,23.05
2023-03-10T22:35:34.447Z,22.42
2023-03-10T22:38:03.438Z,24.17
2023-03-10T22:40:31.252Z,23.75
2023-03-10T22:42:59.430Z,21.40
2023-03-10T22:45:28.513Z,22.17
2023-03-10T22:47:58.272Z,21.08
2023-03-10T22:50:28.060Z,25.15
2023-03-10T22:52:55.594Z,21.60
2023-03-10T22:55:25.995Z,24.88
2023-03-10T22:57:56.594Z,25.33
2023-03-10T23:00:24.398Z,26.35
2023-03-10T23:02:53.716Z,28.67
2023-03-10T23:05:22.110Z,22.70
2023-03-10T23:07:50.156Z,22.75
2023-03-10T23:10:21.930Z,25.30
2023-03-10T23:12:51.660Z,25.10
2023-03-10T23:15:25.512Z,23.88
2023-03-10T23:17:53.668Z,24.67
2023-03-10T23:20:23.939Z,21.35
2023-03-10T23:22:51.484Z,24.40
2023-03-10T23:25:20.784Z,26.88
2023-03-10T23:27:48.566Z,24.35
2023-03-10T23:30:17.875Z,23.30
2023-03-10T23:32:47.625Z,24.65
2023-03-10T23:35:17.011Z,25.48
2023-03-10T23:37:44.604Z,26.92
2023-03-10T23:40:14.660Z,25.80
2023-03-10T23:42:42.632Z,26.20
2023-03-10T23:45:12.602Z,27.05
2023-03-10T23:47:42.322Z,26.75
2023-03-10T23:50:14.664Z,33.83
2023-03-10T23:52:42.183Z,25.42
2023-03-10T23:55:13.788Z,31.23
2023-03-10T23:57:41.385Z,29.92
